Time;durP1;ratioP1;P1;durP2;ratioP2;P2;SDS_P1;SDS_P2;PMS_P1;PMS_P2;Temp;Humidity;BMP_temperature;BMP_pressure;BME280_temperature;BME280_humidity;BME280_pressure;Samples;Min_cycle;Max_cycle;Signal;HPM_P1;HPM_P2
2023/05/02 00:02:28;;;;;;;14.25;10.65;;;;;;;14.40;38.06;101459.88;5069715;23;20045;-82
2023/05/02 00:04:56;;;;;;;13.43;11.00;;;;;;;14.38;38.12;101451.75;5078770;28;20071;-80
2023/05/02 00:07:25;;;;;;;14.35;11.23;;;;;;;14.36;38.27;101452.91;5053334;28;20052;-81
2023/05/02 00:09:53;;;;;;;14.57;10.95;;;;;;;14.33;38.49;101455.97;5049719;28;20098;-82
2023/05/02 00:12:23;;;;;;;15.27;11.73;;;;;;;14.32;38.14;101459.75;5058094;28;20067;-81
2023/05/02 00:14:51;;;;;;;15.18;11.55;;;;;;;14.28;38.56;101469.28;5079193;28;20569;-82
2023/05/02 00:17:19;;;;;;;14.98;11.32;;;;;;;14.25;38.68;101475.97;5081877;28;20063;-80
2023/05/02 00:19:47;;;;;;;14.27;11.20;;;;;;;14.23;38.55;101472.47;5078145;28;20047;-82
2023/05/02 00:22:15;;;;;;;16.02;11.70;;;;;;;14.20;38.53;101480.16;5069694;28;20105;-81
2023/05/02 00:24:43;;;;;;;15.38;11.63;;;;;;;14.16;38.58;101482.34;5057294;28;20055;-82
2023/05/02 00:27:11;;;;;;;16.42;12.35;;;;;;;14.12;38.22;101472.59;5082095;28;20074;-82
2023/05/02 00:29:40;;;;;;;16.83;12.75;;;;;;;14.12;38.44;101485.50;5070208;28;20059;-81
2023/05/02 00:32:08;;;;;;;16.75;12.50;;;;;;;14.07;38.44;101485.06;5057100;28;20048;-80
2023/05/02 00:34:36;;;;;;;17.90;13.13;;;;;;;14.04;38.79;101488.09;5081450;28;20041;-80
2023/05/02 00:37:04;;;;;;;17.75;13.13;;;;;;;14.00;39.04;101488.38;5064903;28;20044;-83
2023/05/02 00:39:33;;;;;;;16.17;13.10;;;;;;;13.98;39.01;101487.66;5076165;28;20037;-83
2023/05/02 00:42:02;;;;;;;17.70;13.65;;;;;;;13.95;38.54;101485.19;5066668;28;20383;-81
2023/05/02 00:44:30;;;;;;;17.80;13.93;;;;;;;13.93;38.98;101489.97;5082751;28;20032;-82
2023/05/02 00:47:01;;;;;;;19.10;13.68;;;;;;;13.93;39.00;101492.72;5065312;28;20079;-83
2023/05/02 00:49:30;;;;;;;20.27;14.35;;;;;;;13.90;38.61;101500.38;5075293;28;20048;-82
2023/05/02 00:51:58;;;;;;;21.70;15.13;;;;;;;13.89;38.50;101504.13;5062248;28;20080;-80
2023/05/02 00:54:26;;;;;;;17.50;13.40;;;;;;;13.85;38.96;101508.19;5088944;28;20048;-82
2023/05/02 00:56:54;;;;;;;18.23;12.75;;;;;;;13.83;38.82;101501.94;5084349;28;20464;-82
2023/05/02 00:59:22;;;;;;;19.42;14.10;;;;;;;13.82;39.22;101501.06;5066828;28;20047;-80
2023/05/02 01:02:01;;;;;;;19.55;13.90;;;;;;;13.83;39.38;101496.44;5041020;28;20048;-81
2023/05/02 01:04:41;;;;;;;21.17;14.25;;;;;;;13.80;39.64;101497.59;5080126;28;20138;-81
2023/05/02 01:07:22;;;;;;;20.75;15.05;;;;;;;13.79;39.91;101497.72;5054950;28;20188;-81
2023/05/02 01:10:01;;;;;;;20.92;15.18;;;;;;;13.76;39.82;101498.91;5065292;28;20108;-80
2023/05/02 01:12:38;;;;;;;20.35;14.60;;;;;;;13.75;39.43;101497.16;5066981;28;20076;-80
2023/05/02 01:15:09;;;;;;;20.85;14.45;;;;;;;13.73;39.45;101501.91;5064830;28;20046;-80
2023/05/02 01:17:38;;;;;;;21.00;14.80;;;;;;;13.72;39.32;101510.31;5067035;28;20045;-80
2023/05/02 01:20:13;;;;;;;21.75;15.00;;;;;;;13.72;39.98;101505.66;5044713;28;20039;-81
2023/05/02 01:22:42;;;;;;;20.15;14.13;;;;;;;13.69;39.57;101513.34;5051314;28;20110;-81
2023/05/02 01:25:22;;;;;;;23.10;15.85;;;;;;;13.71;40.04;101520.44;5051577;28;20033;-81
2023/05/02 01:28:00;;;;;;;22.25;15.60;;;;;;;13.70;39.64;101524.19;5074542;28;20484;-81
2023/05/02 01:30:32;;;;;;;22.17;15.68;;;;;;;13.68;39.45;101528.97;5057450;28;21577;-81
2023/05/02 01:33:03;;;;;;;24.10;15.55;;;;;;;13.64;39.36;101530.25;5075163;28;20059;-81
2023/05/02 01:35:33;;;;;;;22.80;16.20;;;;;;;13.65;39.62;101533.88;5072093;28;20044;-81
2023/05/02 01:38:03;;;;;;;23.67;15.68;;;;;;;13.62;39.81;101535.88;5059954;28;20111;-81
2023/05/02 01:40:31;;;;;;;24.63;16.02;;;;;;;13.60;39.78;101537.06;5075945;28;20041;-80
2023/05/02 01:43:03;;;;;;;23.30;16.25;;;;;;;13.59;39.54;101536.19;5072554;28;20464;-80
2023/05/02 01:45:36;;;;;;;23.55;15.57;;;;;;;13.60;39.57;101545.31;5079118;28;20036;-81
2023/05/02 01:48:07;;;;;;;22.67;15.80;;;;;;;13.58;39.70;101545.44;5073299;28;20079;-80
2023/05/02 01:50:37;;;;;;;24.30;15.52;;;;;;;13.57;39.75;101543.69;5067932;28;20061;-80
2023/05/02 01:53:08;;;;;;;22.90;15.65;;;;;;;13.57;39.97;101549.19;5065118;28;20064;-81
2023/05/02 01:55:38;;;;;;;23.20;14.55;;;;;;;13.55;39.67;101553.91;5048528;28;20032;-81
2023/05/02 01:58:07;;;;;;;24.55;15.75;;;;;;;13.55;39.85;101550.28;5059325;28;20052;-81
2023/05/02 02:00:37;;;;;;;20.13;13.70;;;;;;;13.56;40.03;101560.28;5062979;28;20080;-81
2023/05/02 02:03:06;;;;;;;21.88;14.95;;;;;;;13.53;40.16;101566.91;5073507;28;20049;-81
2023/05/02 02:05:35;;;;;;;21.35;14.90;;;;;;;13.55;39.92;101575.91;5062282;28;20048;-80
2023/05/02 02:08:03;;;;;;;22.83;15.38;;;;;;;13.53;40.21;101571.59;5062842;28;20033;-81
2023/05/02 02:10:40;;;;;;;22.63;14.80;;;;;;;13.55;40.70;101569.53;5049757;28;20131;-81
2023/05/02 02:13:15;;;;;;;22.70;14.77;;;;;;;13.54;40.77;101570.53;5080353;28;20574;-81
2023/05/02 02:15:47;;;;;;;19.45;13.25;;;;;;;13.54;40.24;101565.03;5071207;28;20056;-82
2023/05/02 02:18:21;;;;;;;20.10;13.55;;;;;;;13.53;40.38;101561.41;5054271;28;20040;-82
2023/05/02 02:20:50;;;;;;;21.33;13.65;;;;;;;13.50;40.06;101572.72;5072718;28;20521;-82
2023/05/02 02:23:25;;;;;;;20.58;13.77;;;;;;;13.52;40.45;101575.34;5058596;28;20530;-82
2023/05/02 02:25:55;;;;;;;20.08;14.18;;;;;;;13.52;40.22;101572.59;5052997;28;20036;-82
2023/05/02 02:28:23;;;;;;;20.52;13.23;;;;;;;13.51;40.43;101573.59;5063224;28;20044;-81
2023/05/02 02:30:53;;;;;;;21.33;13.40;;;;;;;13.51;40.04;101576.34;5084455;28;20040;-82
2023/05/02 02:33:25;;;;;;;22.88;14.43;;;;;;;13.49;40.58;101575.59;5059159;28;20037;-82
2023/05/02 02:36:04;;;;;;;20.13;13.55;;;;;;;13.52;40.84;101573.47;5077177;28;20032;-82
2023/05/02 02:38:41;;;;;;;19.08;12.23;;;;;;;13.51;40.57;101574.47;5072903;28;20044;-80
2023/05/02 02:41:16;;;;;;;19.38;13.10;;;;;;;13.51;40.38;101582.72;5060307;28;20045;-81
2023/05/02 02:43:58;;;;;;;20.13;13.52;;;;;;;13.52;40.69;101587.22;5055442;28;20052;-81
2023/05/02 02:46:34;;;;;;;20.58;13.00;;;;;;;13.51;40.90;101579.97;5062625;28;20103;-81
2023/05/02 02:49:15;;;;;;;18.38;12.77;;;;;;;13.53;40.94;101585.34;5058415;28;20147;-80
2023/05/02 02:51:46;;;;;;;20.98;13.77;;;;;;;13.52;40.82;101584.47;5070565;28;20063;-81
2023/05/02 02:54:29;;;;;;;19.80;13.23;;;;;;;13.54;41.19;101598.03;5077745;28;20051;-80
2023/05/02 02:57:02;;;;;;;18.30;12.23;;;;;;;13.51;41.19;101599.22;5082557;28;20060;-81
2023/05/02 02:59:34;;;;;;;17.88;12.50;;;;;;;13.54;41.09;101598.03;5076396;28;20299;-80
2023/05/02 03:02:08;;;;;;;20.48;12.55;;;;;;;13.53;40.78;101599.91;5075286;28;20519;-80
2023/05/02 03:04:39;;;;;;;19.48;12.55;;;;;;;13.55;41.02;101597.03;5063747;28;20071;-83
2023/05/02 03:07:07;;;;;;;18.98;12.85;;;;;;;13.54;40.83;101600.78;5079724;28;20059;-83
2023/05/02 03:09:42;;;;;;;21.48;13.65;;;;;;;13.57;40.89;101609.69;5068016;28;20563;-83
2023/05/02 03:12:14;;;;;;;18.17;12.57;;;;;;;13.52;40.50;101609.22;5083544;28;20048;-82
2023/05/02 03:14:43;;;;;;;18.80;12.40;;;;;;;13.52;40.40;101606.47;5068841;28;20620;-83
2023/05/02 03:17:13;;;;;;;19.75;11.85;;;;;;;13.53;40.89;101610.94;5069386;28;20499;-83
2023/05/02 03:19:41;;;;;;;18.50;12.23;;;;;;;13.52;40.85;101611.97;5070533;28;20036;-83
2023/05/02 03:22:10;;;;;;;19.60;12.35;;;;;;;13.53;40.87;101621.09;5069023;28;20071;-84
2023/05/02 03:24:38;;;;;;;16.45;10.40;;;;;;;13.52;40.85;101627.59;5069228;28;20055;-82
2023/05/02 03:27:06;;;;;;;17.80;11.88;;;;;;;13.51;40.50;101621.22;5080433;28;20059;-83
2023/05/02 03:29:39;;;;;;;17.60;11.32;;;;;;;13.51;40.69;101634.09;5079802;28;20108;-83
2023/05/02 03:32:09;;;;;;;19.98;12.32;;;;;;;13.51;40.50;101632.22;5077169;28;20053;-82
2023/05/02 03:34:40;;;;;;;20.10;12.32;;;;;;;13.53;40.66;101621.09;5069298;28;20546;-82
2023/05/02 03:37:09;;;;;;;18.45;12.15;;;;;;;13.51;40.99;101623.09;5063098;28;20115;-83
2023/05/02 03:39:37;;;;;;;17.70;11.15;;;;;;;13.51;40.53;101625.84;5069204;28;20071;-83
2023/05/02 03:42:05;;;;;;;17.67;11.93;;;;;;;13.51;40.88;101629.47;5076026;28;20083;-82
2023/05/02 03:44:33;;;;;;;19.60;11.75;;;;;;;13.51;40.71;101634.09;5070942;28;20458;-83
2023/05/02 03:47:02;;;;;;;17.92;11.00;;;;;;;13.50;41.04;101629.59;5081534;28;20056;-84
2023/05/02 03:49:35;;;;;;;17.25;11.00;;;;;;;13.49;40.83;101631.47;5073032;28;20479;-84
2023/05/02 03:52:05;;;;;;;16.52;10.27;;;;;;;13.52;41.07;101631.22;5086907;28;20473;-83
2023/05/02 03:54:35;;;;;;;14.82;10.20;;;;;;;13.50;40.64;101627.72;5073897;28;20519;-83
2023/05/02 03:57:04;;;;;;;16.85;9.95;;;;;;;13.50;40.63;101626.84;5090189;28;20036;-84
2023/05/02 03:59:34;;;;;;;15.85;9.90;;;;;;;13.52;40.64;101635.84;5082820;28;20045;-83
2023/05/02 04:02:10;;;;;;;15.70;9.52;;;;;;;13.48;40.75;101643.47;5070304;28;20039;-82
2023/05/02 04:04:42;;;;;;;13.85;8.85;;;;;;;13.47;40.97;101638.97;5069176;28;20106;-84
2023/05/02 04:07:18;;;;;;;14.02;9.32;;;;;;;13.50;40.98;101646.97;5074574;28;20100;-82
2023/05/02 04:09:50;;;;;;;15.05;9.35;;;;;;;13.48;40.40;101645.34;5083362;28;20037;-83
2023/05/02 04:12:18;;;;;;;12.77;8.27;;;;;;;13.48;40.45;101646.22;5090814;28;20056;-81
2023/05/02 04:14:48;;;;;;;12.30;7.90;;;;;;;13.47;40.50;101652.72;5083600;28;20482;-82
2023/05/02 04:17:16;;;;;;;13.45;8.38;;;;;;;13.48;40.91;101639.84;5068535;28;20048;-82
2023/05/02 04:19:48;;;;;;;12.68;8.73;;;;;;;13.47;40.80;101647.22;5065600;28;20063;-80
2023/05/02 04:22:18;;;;;;;13.25;8.27;;;;;;;13.48;40.66;101654.47;5066414;28;20048;-82
2023/05/02 04:24:51;;;;;;;12.63;8.13;;;;;;;13.46;40.71;101653.72;5076038;28;20488;-81
2023/05/02 04:27:19;;;;;;;12.73;8.27;;;;;;;13.47;40.62;101652.72;5057528;28;20036;-82
2023/05/02 04:29:48;;;;;;;12.68;8.02;;;;;;;13.47;40.50;101662.84;5062657;28;20040;-82
2023/05/02 04:32:18;;;;;;;13.20;8.40;;;;;;;13.46;40.92;101658.34;5070754;28;20151;-81
2023/05/02 04:34:47;;;;;;;13.45;8.10;;;;;;;13.46;40.86;101656.47;5062571;28;20509;-83
2023/05/02 04:37:16;;;;;;;13.50;7.60;;;;;;;13.46;40.58;101666.59;5055919;28;20131;-81
2023/05/02 04:39:47;;;;;;;14.85;8.30;;;;;;;13.49;40.85;101674.59;5058241;28;20404;-81
2023/05/02 04:42:19;;;;;;;11.90;7.72;;;;;;;13.46;41.06;101678.47;5064512;28;20110;-82
2023/05/02 04:44:58;;;;;;;11.70;7.65;;;;;;;13.46;40.94;101674.84;5066539;28;20047;-83
2023/05/02 04:47:26;;;;;;;11.45;7.30;;;;;;;13.46;40.62;101683.09;5058131;28;20071;-81
2023/05/02 04:49:54;;;;;;;12.98;8.43;;;;;;;13.46;40.65;101694.09;5077895;28;20066;-81
2023/05/02 04:52:22;;;;;;;14.88;9.23;;;;;;;13.46;40.60;101696.84;5075881;28;20052;-81
2023/05/02 04:54:52;;;;;;;12.93;8.75;;;;;;;13.47;41.20;101702.22;5068678;28;20037;-81
2023/05/02 04:57:20;;;;;;;13.05;8.57;;;;;;;13.45;40.89;101706.09;5059651;28;20044;-81
2023/05/02 04:59:54;;;;;;;14.90;9.50;;;;;;;13.44;40.68;101708.00;5079200;28;20141;-82
2023/05/02 05:02:24;;;;;;;12.45;8.50;;;;;;;13.45;41.19;101722.59;5066059;28;20083;-83
2023/05/02 05:04:53;;;;;;;15.45;9.27;;;;;;;13.44;41.09;101721.75;5056617;28;20271;-82
2023/05/02 05:07:21;;;;;;;16.25;9.07;;;;;;;13.44;40.80;101723.63;5048611;28;20033;-82
2023/05/02 05:09:53;;;;;;;14.38;8.27;;;;;;;13.46;40.87;101719.72;5068834;28;20139;-81
2023/05/02 05:12:24;;;;;;;15.07;9.77;;;;;;;13.41;41.33;101727.50;5075099;28;20047;-81
2023/05/02 05:14:52;;;;;;;16.65;10.10;;;;;;;13.43;40.81;101735.63;5054684;28;20492;-81
2023/05/02 05:17:22;;;;;;;16.90;9.48;;;;;;;13.42;41.34;101731.13;5053829;28;20439;-81
2023/05/02 05:20:02;;;;;;;15.52;9.20;;;;;;;13.45;42.18;101725.34;5073106;28;20040;-81
2023/05/02 05:22:31;;;;;;;15.25;9.25;;;;;;;13.41;41.56;101732.13;5054450;28;20052;-81
2023/05/02 05:25:01;;;;;;;15.90;9.57;;;;;;;13.41;41.75;101741.25;5069516;28;20040;-82
2023/05/02 05:27:31;;;;;;;14.73;9.48;;;;;;;13.40;41.69;101733.13;5055982;28;20053;-81
2023/05/02 05:29:59;;;;;;;15.95;9.52;;;;;;;13.39;41.53;101737.75;5068288;28;20048;-81
2023/05/02 05:32:28;;;;;;;15.50;9.30;;;;;;;13.38;42.01;101744.25;5067189;28;20059;-81
2023/05/02 05:34:56;;;;;;;14.55;9.02;;;;;;;13.39;41.73;101751.50;5069988;28;20067;-81
2023/05/02 05:37:26;;;;;;;14.30;8.80;;;;;;;13.38;42.02;101747.00;5068746;28;20100;-81
2023/05/02 05:39:56;;;;;;;13.23;8.45;;;;;;;13.37;41.80;101756.25;5069588;28;20067;-81
2023/05/02 05:42:26;;;;;;;15.55;9.05;;;;;;;13.37;42.02;101749.88;5070572;28;20060;-81
2023/05/02 05:44:58;;;;;;;14.25;8.52;;;;;;;13.34;41.91;101762.03;5066388;28;20051;-81
2023/05/02 05:47:26;;;;;;;15.57;9.35;;;;;;;13.33;41.97;101763.03;5090422;28;20028;-81
2023/05/02 05:49:55;;;;;;;13.55;8.63;;;;;;;13.34;42.15;101774.91;5075914;28;20043;-84
2023/05/02 05:52:28;;;;;;;12.90;8.25;;;;;;;13.31;42.13;101773.28;5084871;28;20059;-83
2023/05/02 05:54:59;;;;;;;13.95;8.88;;;;;;;13.31;42.62;101780.66;5050002;28;20065;-81
2023/05/02 05:57:30;;;;;;;13.95;8.10;;;;;;;13.32;42.87;101780.53;5056500;28;20049;-84
2023/05/02 05:59:58;;;;;;;13.77;8.07;;;;;;;13.29;42.53;101778.03;5056601;28;20056;-81
2023/05/02 06:02:26;;;;;;;10.25;7.00;;;;;;;13.28;42.52;101787.31;5066227;28;20055;-82
2023/05/02 06:04:55;;;;;;;10.10;6.30;;;;;;;13.27;42.57;101779.19;5075368;28;20044;-82
2023/05/02 06:07:25;;;;;;;9.43;6.05;;;;;;;13.24;42.61;101792.19;5075324;28;20052;-82
2023/05/02 06:09:53;;;;;;;9.38;6.05;;;;;;;13.23;42.24;101792.28;5061608;28;20135;-82
2023/05/02 06:12:21;;;;;;;8.20;5.90;;;;;;;13.21;42.23;101797.91;5075444;28;20095;-85
2023/05/02 06:14:51;;;;;;;8.13;5.20;;;;;;;13.21;42.78;101799.78;5074533;28;20039;-82
2023/05/02 06:17:19;;;;;;;10.27;5.88;;;;;;;13.18;42.65;101803.69;5083617;28;20048;-83
2023/05/02 06:19:49;;;;;;;8.30;5.68;;;;;;;13.18;42.59;101805.56;5075364;28;20048;-83
2023/05/02 06:22:17;;;;;;;7.00;4.82;;;;;;;13.18;42.81;101813.81;5069396;28;20061;-83
2023/05/02 06:24:45;;;;;;;9.02;5.72;;;;;;;13.17;42.43;101817.56;5071575;28;20055;-83
2023/05/02 06:27:12;;;;;;;8.20;5.50;;;;;;;13.17;42.26;101829.44;5061026;28;20052;-83
2023/05/02 06:29:40;;;;;;;9.38;6.40;;;;;;;13.16;42.63;101830.44;5072598;28;20098;-80
2023/05/02 06:32:09;;;;;;;7.93;5.90;;;;;;;13.17;42.62;101834.06;5072684;28;20040;-82
2023/05/02 06:34:37;;;;;;;8.63;6.07;;;;;;;13.11;42.34;101832.69;5076191;28;20051;-82
2023/05/02 06:37:05;;;;;;;8.27;5.72;;;;;;;13.11;42.36;101842.81;5053427;28;20059;-81
2023/05/02 06:39:33;;;;;;;9.85;6.22;;;;;;;13.09;42.55;101847.56;5057249;28;20058;-82
2023/05/02 06:42:01;;;;;;;7.85;4.93;;;;;;;13.07;42.72;101850.44;5059308;28;20070;-82
2023/05/02 06:44:30;;;;;;;9.18;4.97;;;;;;;13.07;42.71;101858.66;5069106;28;20062;-82
2023/05/02 06:46:58;;;;;;;8.13;4.50;;;;;;;13.06;42.86;101864.28;5069247;28;20139;-82
2023/05/02 06:49:27;;;;;;;5.95;4.00;;;;;;;13.08;42.21;101856.78;5062025;28;20044;-82
2023/05/02 06:51:55;;;;;;;6.00;3.42;;;;;;;13.03;42.33;101864.56;5076441;28;20040;-81
2023/05/02 06:54:23;;;;;;;7.28;3.25;;;;;;;13.03;42.51;101868.19;5086676;28;20044;-82
2023/05/02 06:56:51;;;;;;;4.70;2.72;;;;;;;13.02;42.48;101877.44;5055862;28;20074;-82
2023/05/02 06:59:19;;;;;;;6.80;3.70;;;;;;;13.03;42.21;101870.06;5078159;28;20070;-81
2023/05/02 07:01:46;;;;;;;4.97;2.70;;;;;;;13.04;42.28;101877.28;5068493;28;20044;-81
2023/05/02 07:04:14;;;;;;;4.60;2.97;;;;;;;13.03;42.24;101873.69;5065431;28;20048;-82
2023/05/02 07:06:43;;;;;;;6.07;3.20;;;;;;;13.07;42.48;101886.16;5085082;28;20048;-82
2023/05/02 07:09:11;;;;;;;6.75;3.22;;;;;;;13.05;42.31;101890.91;5075529;28;20138;-83
2023/05/02 07:11:39;;;;;;;5.05;3.20;;;;;;;13.08;42.24;101889.78;5077319;28;20037;-83
2023/05/02 07:14:07;;;;;;;6.13;3.17;;;;;;;13.07;42.16;101888.91;5069090;28;20508;-84
2023/05/02 07:16:35;;;;;;;5.22;3.70;;;;;;;13.09;42.56;101897.91;5070359;28;20083;-83
2023/05/02 07:19:05;;;;;;;5.88;3.72;;;;;;;13.09;41.98;101900.66;5061069;28;20057;-83
2023/05/02 07:21:33;;;;;;;5.80;3.53;;;;;;;13.11;42.14;101906.91;5069266;28;20121;-83
2023/05/02 07:24:02;;;;;;;5.70;3.58;;;;;;;13.14;42.34;101905.75;5070946;28;20052;-84
2023/05/02 07:26:30;;;;;;;5.80;3.50;;;;;;;13.13;41.83;101909.50;5063880;28;20063;-84
2023/05/02 07:28:58;;;;;;;5.88;3.47;;;;;;;13.14;41.67;101909.38;5062559;28;20059;-85
2023/05/02 07:31:26;;;;;;;7.03;4.18;;;;;;;13.15;42.08;101913.88;5078179;28;20052;-85
2023/05/02 07:33:53;;;;;;;5.72;3.50;;;;;;;13.15;42.24;101913.88;5081565;28;20040;-84
2023/05/02 07:36:21;;;;;;;5.75;3.70;;;;;;;13.18;42.00;101915.50;5059594;28;20052;-83
2023/05/02 07:38:49;;;;;;;6.35;3.80;;;;;;;13.17;41.99;101913.75;5063350;28;20051;-83
2023/05/02 07:41:19;;;;;;;6.70;3.80;;;;;;;13.20;41.86;101925.38;5064431;28;20040;-83
2023/05/02 07:43:47;;;;;;;6.32;3.72;;;;;;;13.18;42.29;101921.88;5067777;28;20407;-84
2023/05/02 07:46:15;;;;;;;6.70;3.97;;;;;;;13.20;42.13;101925.38;5071049;28;20056;-83
2023/05/02 07:48:43;;;;;;;6.57;3.92;;;;;;;13.21;41.79;101929.88;5068481;28;20076;-83
2023/05/02 07:51:11;;;;;;;6.82;4.53;;;;;;;13.24;41.61;101935.13;5068362;28;20064;-83
2023/05/02 07:53:39;;;;;;;7.95;4.95;;;;;;;13.25;41.44;101942.38;5068190;28;20044;-81
2023/05/02 07:56:07;;;;;;;7.38;4.22;;;;;;;13.29;41.29;101947.59;5059515;28;20044;-83
2023/05/02 07:58:37;;;;;;;5.20;3.40;;;;;;;13.29;41.13;101945.72;5058098;28;20058;-82
2023/05/02 08:01:05;;;;;;;4.07;2.70;;;;;;;13.29;40.67;101947.59;5080536;28;20081;-83
2023/05/02 08:03:33;;;;;;;6.10;2.60;;;;;;;13.28;40.71;101957.75;5059430;28;20041;-82
2023/05/02 08:06:02;;;;;;;4.53;2.60;;;;;;;13.26;40.36;101962.50;5076416;28;20148;-82
2023/05/02 08:08:30;;;;;;;6.40;2.72;;;;;;;13.24;40.17;101965.38;5065259;28;20052;-83
2023/05/02 08:10:58;;;;;;;4.85;2.60;;;;;;;13.23;40.54;101960.88;5063840;28;20052;-81
2023/05/02 08:13:27;;;;;;;5.13;2.20;;;;;;;13.21;40.22;101967.47;5056732;28;20454;-80
2023/05/02 08:15:57;;;;;;;4.65;2.20;;;;;;;13.22;40.63;101963.72;5060695;28;20156;-81
2023/05/02 08:18:25;;;;;;;5.07;2.40;;;;;;;13.18;40.30;101973.25;5053300;28;20147;-82
2023/05/02 08:20:54;;;;;;;5.80;2.65;;;;;;;13.15;40.31;101974.34;5065664;28;20087;-82
2023/05/02 08:23:22;;;;;;;4.00;2.42;;;;;;;13.15;39.79;101987.22;5077123;28;20044;-81
2023/05/02 08:25:50;;;;;;;5.25;3.10;;;;;;;13.12;40.33;101993.84;5065896;28;20067;-81
2023/05/02 08:28:18;;;;;;;5.32;2.83;;;;;;;13.09;39.63;101985.84;5057662;28;20541;-81
2023/05/02 08:30:46;;;;;;;5.72;2.88;;;;;;;13.08;39.97;101994.22;5076901;28;20392;-79
2023/05/02 08:33:15;;;;;;;5.15;3.20;;;;;;;13.08;39.76;101997.84;5053744;28;20041;-80
2023/05/02 08:35:43;;;;;;;5.25;3.05;;;;;;;13.05;39.84;101999.94;5069986;28;20044;-80
2023/05/02 08:38:11;;;;;;;5.07;2.97;;;;;;;13.04;39.64;102000.94;5064312;28;20421;-80
2023/05/02 08:40:39;;;;;;;5.32;3.40;;;;;;;13.02;39.91;102012.09;5086215;28;20047;-81
2023/05/02 08:43:11;;;;;;;5.90;3.40;;;;;;;13.02;39.26;102009.34;5067493;28;20064;-81
2023/05/02 08:45:41;;;;;;;5.43;3.45;;;;;;;13.02;39.58;102019.44;5079814;28;20040;-81
2023/05/02 08:48:10;;;;;;;4.97;3.22;;;;;;;12.99;39.47;102020.56;5063801;28;20044;-81
2023/05/02 08:50:43;;;;;;;5.28;3.33;;;;;;;12.99;39.20;102017.81;5073497;28;20086;-81
2023/05/02 08:53:13;;;;;;;4.60;2.72;;;;;;;12.96;39.26;102025.41;5055304;28;20041;-81
2023/05/02 08:55:42;;;;;;;6.60;3.00;;;;;;;12.96;39.32;102029.03;5079370;28;20048;-79
2023/05/02 08:58:11;;;;;;;5.22;2.47;;;;;;;12.94;39.33;102021.94;5081035;28;20499;-80
2023/05/02 09:00:42;;;;;;;4.70;2.17;;;;;;;12.94;39.20;102020.06;5074028;28;20168;-80
2023/05/02 09:03:23;;;;;;;5.30;2.40;;;;;;;12.97;38.90;102027.16;5089543;28;20063;-81
2023/05/02 09:05:59;;;;;;;4.53;2.30;;;;;;;12.96;38.95;102028.16;5056280;28;20079;-80
2023/05/02 09:08:27;;;;;;;4.95;2.78;;;;;;;12.94;38.80;102031.06;5066946;28;20131;-80
2023/05/02 09:10:55;;;;;;;5.38;2.55;;;;;;;12.95;39.13;102032.81;5056124;28;20052;-81
2023/05/02 09:13:30;;;;;;;5.65;2.67;;;;;;;13.00;39.08;102041.56;5060173;28;20449;-81
2023/05/02 09:16:01;;;;;;;4.47;2.42;;;;;;;13.00;39.41;102041.56;5081531;28;20140;-81
2023/05/02 09:18:30;;;;;;;5.35;2.92;;;;;;;13.04;39.14;102042.16;5077837;28;20045;-81
2023/05/02 09:21:01;;;;;;;4.30;2.03;;;;;;;13.06;39.01;102038.31;5069907;28;20464;-81
2023/05/02 09:23:33;;;;;;;4.57;2.10;;;;;;;13.11;38.53;102044.34;5065956;28;20044;-80
2023/05/02 09:26:01;;;;;;;6.47;2.78;;;;;;;13.10;38.80;102049.94;5074914;28;20041;-79
2023/05/02 09:28:40;;;;;;;4.93;2.72;;;;;;;13.17;37.76;102064.94;5072217;28;20044;-80
2023/05/02 09:31:09;;;;;;;5.35;3.50;;;;;;;13.16;38.77;102057.69;5078402;28;20466;-83
2023/05/02 09:33:39;;;;;;;5.50;3.25;;;;;;;13.17;38.31;102065.81;5084660;28;20115;-81
2023/05/02 09:36:09;;;;;;;5.38;3.10;;;;;;;13.18;38.66;102063.97;5063089;28;20043;-82
2023/05/02 09:38:38;;;;;;;5.05;3.30;;;;;;;13.15;38.75;102067.81;5058300;28;20045;-83
2023/05/02 09:41:06;;;;;;;4.35;2.80;;;;;;;13.17;38.95;102067.69;5059035;28;20052;-82
2023/05/02 09:43:34;;;;;;;4.70;2.65;;;;;;;13.15;38.61;102072.44;5055046;28;20045;-82
2023/05/02 09:46:04;;;;;;;5.53;2.78;;;;;;;13.17;38.95;102076.81;5072788;28;20036;-83
2023/05/02 09:48:33;;;;;;;5.95;2.70;;;;;;;13.21;38.35;102082.94;5061272;28;20056;-83
2023/05/02 09:51:01;;;;;;;5.35;2.60;;;;;;;13.22;38.78;102076.44;5045633;28;20049;-83
2023/05/02 09:53:30;;;;;;;5.53;2.80;;;;;;;13.27;39.01;102087.97;5063331;28;20055;-83
2023/05/02 09:56:03;;;;;;;4.13;2.30;;;;;;;13.34;38.71;102094.72;5070958;28;20053;-80
2023/05/02 09:58:31;;;;;;;3.53;2.30;;;;;;;13.36;38.70;102091.84;5064833;28;20049;-80
2023/05/02 10:00:59;;;;;;;4.15;2.30;;;;;;;13.44;38.42;102095.75;5071625;28;20048;-80
2023/05/02 10:03:29;;;;;;;4.35;2.60;;;;;;;13.51;38.65;102101.63;5063593;28;20116;-81
2023/05/02 10:05:57;;;;;;;3.55;2.30;;;;;;;13.58;38.30;102100.16;5074977;28;20048;-81
2023/05/02 10:08:29;;;;;;;3.90;2.22;;;;;;;13.65;37.83;102101.41;5064723;28;20063;-81
2023/05/02 10:11:12;;;;;;;3.80;2.33;;;;;;;13.72;37.57;102099.03;5076129;28;20067;-82
2023/05/02 10:13:43;;;;;;;3.38;2.13;;;;;;;13.76;37.89;102108.78;5074804;28;20072;-81
2023/05/02 10:16:13;;;;;;;4.82;2.60;;;;;;;13.84;37.83;102109.94;5065732;28;20055;-81
2023/05/02 10:18:47;;;;;;;4.13;2.40;;;;;;;13.90;37.70;102108.53;5084897;28;20107;-81
2023/05/02 10:21:17;;;;;;;6.60;3.45;;;;;;;13.96;37.23;102114.41;5069610;28;20052;-81
2023/05/02 10:23:45;;;;;;;6.32;3.55;;;;;;;14.00;36.74;102110.41;5065660;28;20103;-81
2023/05/02 10:26:17;;;;;;;5.93;3.63;;;;;;;14.08;36.10;102117.16;5061688;28;20048;-81
2023/05/02 10:28:45;;;;;;;4.88;3.20;;;;;;;14.09;36.80;102110.66;5069799;28;20120;-81
2023/05/02 10:31:15;;;;;;;5.57;3.72;;;;;;;14.18;36.37;102123.66;5065279;28;20382;-82
2023/05/02 10:33:43;;;;;;;4.50;3.22;;;;;;;14.23;36.07;102107.63;5072380;28;20041;-83
2023/05/02 10:36:13;;;;;;;5.53;3.25;;;;;;;14.29;35.74;102109.84;5078563;28;20043;-82
2023/05/02 10:38:42;;;;;;;4.70;3.00;;;;;;;14.32;36.11;102098.59;5063907;28;20055;-82
2023/05/02 10:41:13;;;;;;;3.95;2.50;;;;;;;14.38;35.78;102106.34;5068304;28;20048;-83
2023/05/02 10:43:48;;;;;;;3.83;2.50;;;;;;;14.42;34.51;102099.56;5070026;28;20059;-83
2023/05/02 10:46:32;;;;;;;4.75;2.50;;;;;;;14.48;34.33;102099.09;5051054;28;20097;-82
2023/05/02 10:49:02;;;;;;;5.80;2.55;;;;;;;14.52;35.24;102096.97;5063132;28;20665;-81
2023/05/02 10:51:31;;;;;;;4.78;2.58;;;;;;;14.58;35.30;102099.19;5063396;28;20109;-82
2023/05/02 10:54:21;;;;;;;5.13;2.30;;;;;;;14.65;34.43;102097.66;5060488;28;20072;-82
2023/05/02 10:57:04;;;;;;;4.55;2.50;;;;;;;14.72;34.27;102097.00;5082535;28;20048;-80
2023/05/02 10:59:34;;;;;;;;;;;;;;;14.45;35.61;102102.06;5071566;28;20327;-80
2023/05/02 11:02:03;;;;;;;3.80;2.28;;;;;;;14.76;35.32;102103.13;5057402;28;19920;-79
2023/05/02 11:05:00;;;;;;;6.70;2.90;;;;;;;14.86;33.95;102105.94;5078007;28;20159;-80
2023/05/02 11:07:30;;;;;;;6.47;2.60;;;;;;;14.88;34.49;102117.72;5067439;28;20421;-80
2023/05/02 11:10:25;;;;;;;5.70;3.17;;;;;;;14.90;33.08;102118.47;5071061;28;20056;-83
2023/05/02 11:12:54;;;;;;;4.57;2.58;;;;;;;14.92;33.94;102108.19;5072774;28;20052;-82
2023/05/02 11:15:57;;;;;;;4.75;2.72;;;;;;;14.93;33.24;102119.06;5087079;28;20032;-83
2023/05/02 11:18:26;;;;;;;4.93;2.45;;;;;;;14.91;34.21;102112.84;5060363;28;20095;-82
2023/05/02 11:21:27;;;;;;;5.32;2.55;;;;;;;14.95;33.24;102118.94;5059154;28;20046;-82
2023/05/02 11:24:28;;;;;;;5.03;2.60;;;;;;;14.97;32.48;102117.81;5055756;28;20068;-81
2023/05/02 11:27:29;;;;;;;6.55;3.20;;;;;;;14.96;31.86;102118.81;5056502;28;20297;-83
2023/05/02 11:29:58;;;;;;;5.00;2.35;;;;;;;14.96;33.60;102117.94;5072207;28;20109;-83
2023/05/02 11:33:07;;;;;;;4.00;2.40;;;;;;;14.96;32.68;102106.91;5060671;28;20051;-81
2023/05/02 11:35:36;;;;;;;4.20;2.13;;;;;;;14.96;32.92;102112.41;5064435;28;20049;-83
2023/05/02 11:38:05;;;;;;;4.80;2.20;;;;;;;14.99;33.55;102113.03;5059120;28;20040;-83